Time;durP1;ratioP1;P1;durP2;ratioP2;P2;SDS_P1;SDS_P2;PMS_P1;PMS_P2;Temp;Humidity;BMP_temperature;BMP_pressure;BME280_temperature;BME280_humidity;BME280_pressure;Samples;Min_cycle;Max_cycle;Signal;HPM_P1;HPM_P2
2023/01/14 00:01:17;;;;;;;17.30;5.03;;;;;;;6.62;100.00;101182.75;6175103;23;20506;-68
2023/01/14 00:03:44;;;;;;;4.05;3.72;;;;;;;6.51;100.00;101172.59;6094561;23;20035;-68
2023/01/14 00:06:12;;;;;;;6.32;4.50;;;;;;;5.75;100.00;101053.03;6176435;23;20015;-67
2023/01/14 00:08:39;;;;;;;4.80;4.50;;;;;;;6.51;100.00;101166.53;6145041;23;20192;-68
2023/01/14 00:11:08;;;;;;;8.40;5.78;;;;;;;6.52;100.00;101155.22;6181086;23;20016;-68
2023/01/14 00:13:37;;;;;;;12.32;4.95;;;;;;;6.18;100.00;101096.22;6124674;23;20417;-68
2023/01/14 00:16:06;;;;;;;3.55;3.45;;;;;;;6.52;100.00;101134.38;6164548;23;20036;-68
2023/01/14 00:18:34;;;;;;;5.93;4.68;;;;;;;6.56;100.00;101152.47;6139224;23;20013;-68
2023/01/14 00:21:12;;;;;;;4.95;4.55;;;;;;;6.52;100.00;101163.06;6178648;23;20028;-69
2023/01/14 00:23:40;;;;;;;4.10;3.90;;;;;;;6.46;100.00;101164.06;6122807;23;20089;-69
2023/01/14 00:26:15;;;;;;;5.88;3.50;;;;;;;6.41;100.00;101159.88;6161165;23;20020;-70
2023/01/14 00:28:47;;;;;;;4.38;3.97;;;;;;;6.31;100.00;101152.28;6141420;23;20721;-69
2023/01/14 00:31:20;;;;;;;5.13;3.70;;;;;;;6.44;100.00;101188.47;6166001;23;20028;-69
2023/01/14 00:33:47;;;;;;;4.90;4.45;;;;;;;5.92;100.00;101096.88;6138531;23;20020;-69
2023/01/14 00:36:17;;;;;;;4.10;3.90;;;;;;;4.86;100.00;100914.81;6142388;23;20029;-69
2023/01/14 00:38:44;;;;;;;4.00;3.80;;;;;;;5.88;100.00;101106.53;6116067;23;20025;-68
2023/01/14 00:41:13;;;;;;;4.05;3.80;;;;;;;5.84;100.00;101089.25;6179581;23;20012;-67
2023/01/14 00:43:45;;;;;;;15.65;4.28;;;;;;;6.14;100.00;101159.72;6141554;23;20021;-67
2023/01/14 00:46:16;;;;;;;7.72;4.30;;;;;;;6.15;100.00;101158.81;6125846;23;20287;-68
2023/01/14 00:48:43;;;;;;;5.15;4.75;;;;;;;5.55;100.00;101072.66;6130126;23;20075;-68
2023/01/14 00:51:11;;;;;;;3.50;3.30;;;;;;;5.69;100.00;101111.34;6171096;23;20439;-68
2023/01/14 00:53:38;;;;;;;13.30;5.20;;;;;;;5.77;100.00;101126.75;6141686;23;20020;-68
2023/01/14 00:56:05;;;;;;;4.18;3.88;;;;;;;5.98;100.00;101167.09;6171181;23;20020;-67
2023/01/14 00:58:32;;;;;;;7.72;4.72;;;;;;;5.45;100.00;101096.31;6137372;23;20028;-68
2023/01/14 01:00:58;;;;;;;4.70;4.20;;;;;;;5.88;100.00;101166.44;6141395;23;20082;-68
2023/01/14 01:03:25;;;;;;;4.75;4.20;;;;;;;5.45;100.00;101110.19;6138145;23;20088;-68
2023/01/14 01:05:52;;;;;;;10.77;3.92;;;;;;;5.86;100.00;101167.38;6171523;23;20040;-69
2023/01/14 01:08:21;;;;;;;5.93;5.20;;;;;;;5.87;100.00;101162.09;6135937;23;20092;-67
2023/01/14 01:10:50;;;;;;;4.55;4.15;;;;;;;4.75;100.00;100954.06;6169387;23;20025;-68
2023/01/14 01:13:17;;;;;;;4.03;3.58;;;;;;;5.92;100.00;101168.06;6112265;23;20033;-68
2023/01/14 01:15:44;;;;;;;5.55;3.80;;;;;;;5.95;100.00;101172.38;6164672;23;20028;-68
2023/01/14 01:18:12;;;;;;;7.45;4.45;;;;;;;5.96;100.00;101148.03;6119599;23;20025;-68
2023/01/14 01:20:42;;;;;;;18.83;3.80;;;;;;;6.00;100.00;101162.69;6170296;23;20020;-68
2023/01/14 01:23:12;;;;;;;16.55;4.25;;;;;;;5.71;100.00;101137.34;6101084;23;20561;-68
2023/01/14 01:25:39;;;;;;;4.75;4.00;;;;;;;5.67;100.00;101118.31;6173273;23;20028;-68
2023/01/14 01:28:05;;;;;;;4.97;4.50;;;;;;;6.06;100.00;101172.94;6139675;23;20361;-67
2023/01/14 01:30:32;;;;;;;10.32;4.03;;;;;;;4.64;100.00;100927.47;6119946;23;20478;-68
2023/01/14 01:33:00;;;;;;;4.75;4.38;;;;;;;6.02;100.00;101140.06;6170694;23;20033;-67
2023/01/14 01:35:27;;;;;;;7.05;4.60;;;;;;;5.92;100.00;101115.97;6119100;23;20466;-67
2023/01/14 01:37:54;;;;;;;4.78;4.35;;;;;;;6.45;100.00;101195.41;6175682;23;20052;-68
2023/01/14 01:40:21;;;;;;;5.63;3.70;;;;;;;6.56;100.00;101199.41;6140220;23;20080;-67
2023/01/14 01:42:56;;;;;;;22.23;4.38;;;;;;;6.06;100.00;101128.66;6169629;23;20036;-67
2023/01/14 01:45:41;;;;;;;12.57;4.82;;;;;;;6.55;100.00;101207.28;6127708;23;20582;-68
2023/01/14 01:48:13;;;;;;;5.65;4.65;;;;;;;6.53;100.00;101212.53;6135938;23;20268;-68
2023/01/14 01:50:41;;;;;;;11.00;4.57;;;;;;;6.50;100.00;101207.41;6167652;23;20031;-68
2023/01/14 01:53:08;;;;;;;5.50;3.75;;;;;;;6.44;100.00;101202.38;6138078;23;20040;-68
2023/01/14 01:55:38;;;;;;;21.65;4.85;;;;;;;6.50;100.00;101198.75;6137710;23;20028;-67
2023/01/14 01:58:05;;;;;;;8.80;5.10;;;;;;;6.54;100.00;101200.38;6169820;23;20203;-68
2023/01/14 02:00:31;;;;;;;24.90;4.68;;;;;;;6.16;100.00;101137.94;6117947;23;20017;-67
2023/01/14 02:03:02;;;;;;;10.05;3.75;;;;;;;6.57;100.00;101210.69;6160610;23;20032;-68
2023/01/14 02:05:30;;;;;;;5.00;4.50;;;;;;;6.52;100.00;101197.78;6130245;23;20025;-68
2023/01/14 02:07:58;;;;;;;4.28;4.00;;;;;;;6.32;100.00;101167.06;6141189;23;20256;-68
2023/01/14 02:10:41;;;;;;;3.47;3.38;;;;;;;6.07;100.00;101122.53;6163794;23;20012;-67
2023/01/14 02:13:20;;;;;;;;;;;;;;;6.56;100.00;101206.41;6126286;23;20108;-67
2023/01/14 02:15:58;;;;;;;3.75;3.55;;;;;;;6.55;100.00;101191.63;6165286;23;20370;-67
2023/01/14 02:18:33;;;;;;;3.88;3.67;;;;;;;6.54;100.00;101201.22;6138568;23;20025;-68
2023/01/14 02:21:23;;;;;;;8.63;3.88;;;;;;;6.14;100.00;101124.09;6134672;23;20084;-67
2023/01/14 02:24:20;;;;;;;7.72;4.45;;;;;;;6.57;100.00;101189.84;6140082;23;20045;-67
2023/01/14 02:27:13;;;;;;;4.82;4.20;;;;;;;6.53;100.00;101191.66;6142445;23;20462;-67
2023/01/14 02:29:51;;;;;;;12.82;5.35;;;;;;;6.57;100.00;101192.44;6102993;23;20084;-68
2023/01/14 02:33:04;;;;;;;10.18;4.40;;;;;;;6.62;100.00;101205.38;6152140;23;20021;-68
2023/01/14 02:35:46;;;;;;;10.50;4.55;;;;;;;6.61;100.00;101199.28;6144050;23;20261;-68
2023/01/14 02:38:49;;;;;;;4.50;4.20;;;;;;;6.58;100.00;101200.22;6175547;23;20052;-68
2023/01/14 02:44:39;;;;;;;3.88;3.67;;;;;;;5.93;100.00;101091.63;6122752;23;20230;-68
2023/01/14 02:47:21;;;;;;;11.80;4.15;;;;;;;6.52;100.00;101179.53;6140889;23;20475;-67
2023/01/14 02:49:51;;;;;;;18.98;5.47;;;;;;;5.99;100.00;101098.44;6141508;23;20013;-68
2023/01/14 02:52:19;;;;;;;3.67;3.55;;;;;;;6.37;100.00;101172.13;6146090;23;20028;-68
2023/01/14 02:54:56;;;;;;;7.07;4.18;;;;;;;6.24;100.00;101155.97;6140380;23;20021;-68
2023/01/14 02:57:49;;;;;;;7.78;4.10;;;;;;;5.76;100.00;101081.66;6121547;23;20512;-68
2023/01/14 03:00:37;;;;;;;18.75;4.32;;;;;;;6.14;100.00;101144.94;6177564;23;20036;-68
2023/01/14 03:03:32;;;;;;;3.88;3.67;;;;;;;6.06;100.00;101140.84;6140974;23;20009;-68
2023/01/14 03:06:11;;;;;;;4.60;4.10;;;;;;;5.94;100.00;101124.59;6175020;23;20455;-68
2023/01/14 03:09:02;;;;;;;4.57;3.85;;;;;;;5.64;100.00;101089.78;6139171;23;20017;-66
2023/01/14 03:11:39;;;;;;;18.77;4.10;;;;;;;5.58;100.00;101077.75;6143657;23;20565;-67
2023/01/14 03:14:16;;;;;;;4.82;4.47;;;;;;;5.68;100.00;101090.56;6134502;23;20237;-67
2023/01/14 03:16:49;;;;;;;8.27;3.95;;;;;;;5.55;100.00;101072.66;6170529;23;20053;-67
2023/01/14 03:19:33;;;;;;;3.92;3.72;;;;;;;5.72;100.00;101081.78;6140024;23;20099;-67
2023/01/14 03:22:03;;;;;;;5.45;4.65;;;;;;;5.69;100.00;101079.22;6142044;23;20378;-67
2023/01/14 03:24:33;;;;;;;4.53;4.20;;;;;;;5.63;100.00;101082.84;6168168;23;20023;-67
2023/01/14 03:27:07;;;;;;;4.28;3.97;;;;;;;4.96;100.00;100991.72;6149445;23;20035;-67
2023/01/14 03:29:37;;;;;;;4.55;4.15;;;;;;;5.58;100.00;101077.75;6166046;23;20019;-67
2023/01/14 03:32:09;;;;;;;12.98;4.55;;;;;;;5.45;100.00;101065.94;6142563;23;20372;-68
2023/01/14 03:34:43;;;;;;;3.73;3.57;;;;;;;5.07;100.00;100984.50;6117137;23;20052;-67
2023/01/14 03:37:12;;;;;;;4.85;4.45;;;;;;;5.55;100.00;101059.63;6139017;23;20377;-68
2023/01/14 03:39:44;;;;;;;5.28;3.65;;;;;;;5.49;100.00;101049.38;6128446;23;20009;-67
2023/01/14 03:42:20;;;;;;;4.57;4.22;;;;;;;5.56;100.00;101057.88;6140983;23;20072;-67
2023/01/14 03:44:46;;;;;;;5.47;3.60;;;;;;;5.55;100.00;101056.16;6135972;23;20452;-67
2023/01/14 03:47:13;;;;;;;3.42;3.33;;;;;;;5.53;100.00;101053.63;6143781;23;20452;-67
2023/01/14 03:49:40;;;;;;;3.85;3.65;;;;;;;5.52;100.00;101051.03;6141423;23;20503;-69
2023/01/14 03:52:14;;;;;;;4.63;3.85;;;;;;;5.22;100.00;101001.47;6117058;23;20086;-68
2023/01/14 03:54:44;;;;;;;10.40;4.30;;;;;;;5.53;100.00;101057.94;6165212;23;20446;-67
2023/01/14 03:57:40;;;;;;;3.65;3.47;;;;;;;5.43;100.00;101043.44;6138485;23;20037;-67
2023/01/14 04:00:07;;;;;;;4.40;3.80;;;;;;;5.45;100.00;101052.94;6175880;23;20023;-67
2023/01/14 04:02:35;;;;;;;4.35;4.15;;;;;;;5.01;100.00;100969.03;6139585;23;20021;-67
2023/01/14 04:05:02;;;;;;;10.95;5.05;;;;;;;4.79;100.00;100935.78;6167440;23;20255;-68
2023/01/14 04:07:28;;;;;;;14.27;4.85;;;;;;;5.46;100.00;101051.19;6120376;23;20029;-68
2023/01/14 04:09:54;;;;;;;3.55;3.45;;;;;;;5.11;100.00;100987.88;6168297;23;20024;-67
2023/01/14 04:12:23;;;;;;;7.20;3.92;;;;;;;4.84;100.00;100940.84;6137618;23;20017;-68
2023/01/14 04:17:37;;;;;;;4.00;3.80;;;;;;;5.06;100.00;100967.19;6111244;23;20590;-68
2023/01/14 04:20:05;;;;;;;6.53;4.88;;;;;;;5.49;100.00;101025.06;6163505;23;20028;-67
2023/01/14 04:22:32;;;;;;;3.60;3.40;;;;;;;5.07;100.00;100961.09;6145340;23;20058;-68
2023/01/14 04:24:59;;;;;;;4.55;4.25;;;;;;;4.87;100.00;100932.09;6173639;23;20242;-67
2023/01/14 04:27:25;;;;;;;5.20;3.78;;;;;;;4.89;100.00;100920.78;6139028;23;20103;-67
2023/01/14 04:29:51;;;;;;;3.97;3.67;;;;;;;5.47;100.00;101013.84;6164996;23;20565;-67
2023/01/14 04:32:18;;;;;;;17.40;4.18;;;;;;;5.07;100.00;100955.03;6142741;23;20032;-68
2023/01/14 04:34:44;;;;;;;5.22;4.18;;;;;;;5.52;100.00;101010.25;6140405;23;20399;-68
2023/01/14 04:37:11;;;;;;;16.55;4.55;;;;;;;5.40;100.00;100976.72;6140148;23;20140;-67
2023/01/14 04:39:37;;;;;;;4.63;4.43;;;;;;;5.64;100.00;101011.66;6162224;23;20020;-68
2023/01/14 04:44:49;;;;;;;5.35;3.72;;;;;;;5.38;100.00;100960.28;6160754;23;20041;-68
2023/01/14 04:47:16;;;;;;;4.40;4.10;;;;;;;4.74;100.00;100858.78;6141026;23;20029;-67
2023/01/14 04:49:43;;;;;;;4.22;3.92;;;;;;;5.33;100.00;100957.81;6171446;23;20312;-68
2023/01/14 04:52:09;;;;;;;3.92;3.72;;;;;;;5.33;100.00;100968.22;6141350;23;20017;-68
2023/01/14 04:54:36;;;;;;;5.00;4.07;;;;;;;5.50;100.00;100977.34;6166190;23;20439;-68
2023/01/14 04:57:03;;;;;;;3.67;3.50;;;;;;;5.22;100.00;100938.19;6139342;23;20335;-67
2023/01/14 04:59:30;;;;;;;7.03;5.18;;;;;;;4.84;100.00;100888.00;6143779;23;20027;-68
2023/01/14 05:01:57;;;;;;;4.30;4.00;;;;;;;5.37;100.00;100975.06;6139873;23;20054;-67
2023/01/14 05:04:23;;;;;;;5.20;4.80;;;;;;;5.36;100.00;100967.28;6161991;23;20411;-67
2023/01/14 05:06:50;;;;;;;3.55;3.38;;;;;;;5.19;100.00;100942.56;6135079;23;20200;-68
2023/01/14 05:09:16;;;;;;;7.85;4.75;;;;;;;5.31;100.00;100956.13;6144539;23;20027;-68
2023/01/14 05:11:43;;;;;;;7.63;3.65;;;;;;;5.05;100.00;100923.00;6136391;23;20434;-68
2023/01/14 05:14:09;;;;;;;3.70;3.50;;;;;;;5.28;100.00;100958.84;6139059;23;20017;-67
2023/01/14 05:16:36;;;;;;;3.50;3.40;;;;;;;4.83;100.00;100883.66;6171010;23;20547;-68
2023/01/14 05:19:02;;;;;;;5.28;3.92;;;;;;;4.98;100.00;100930.09;6137238;23;20173;-67
2023/01/14 05:21:29;;;;;;;8.45;4.07;;;;;;;5.13;100.00;100921.03;6130383;23;20706;-68
2023/01/14 05:23:55;;;;;;;3.20;3.10;;;;;;;5.23;100.00;100935.50;6164592;23;20009;-68
2023/01/14 05:26:22;;;;;;;3.60;3.28;;;;;;;4.65;100.00;100859.88;6112403;23;20108;-67
2023/01/14 05:28:49;;;;;;;18.55;4.13;;;;;;;5.20;100.00;100943.41;6158872;23;20271;-67
2023/01/14 05:31:15;;;;;;;11.35;3.65;;;;;;;5.19;100.00;100944.28;6135147;23;20092;-67
2023/01/14 05:33:42;;;;;;;5.07;4.60;;;;;;;4.87;100.00;100890.50;6146186;23;20109;-68
2023/01/14 05:36:09;;;;;;;3.88;3.67;;;;;;;5.18;100.00;100935.66;6148249;23;20017;-67
2023/01/14 05:38:35;;;;;;;3.15;3.05;;;;;;;5.07;100.00;100919.47;6145834;23;20017;-67
2023/01/14 05:41:02;;;;;;;7.22;3.60;;;;;;;4.77;100.00;100843.94;6139289;23;20024;-67
2023/01/14 05:46:16;;;;;;;5.32;4.50;;;;;;;5.22;100.00;100917.38;6129542;23;20017;-67
2023/01/14 05:48:44;;;;;;;3.70;3.50;;;;;;;5.20;100.00;100907.84;6146291;23;20169;-68
2023/01/14 05:51:12;;;;;;;4.25;3.78;;;;;;;5.24;100.00;100912.97;6168446;23;20267;-68
2023/01/14 05:53:39;;;;;;;4.18;3.90;;;;;;;5.20;100.00;100902.63;6121116;23;20037;-67
2023/01/14 05:56:06;;;;;;;6.53;3.70;;;;;;;5.23;100.00;100913.84;6170726;23;20357;-68
2023/01/14 05:58:33;;;;;;;4.28;4.03;;;;;;;4.72;100.00;100809.41;6146041;23;20021;-68
2023/01/14 06:06:39;;;;;;;6.57;4.20;;;;;;;4.97;100.00;100824.34;6141104;23;20416;-67
2023/01/14 06:09:08;;;;;;;4.10;3.90;;;;;;;5.50;100.00;100881.03;6170537;23;20263;-67
2023/01/14 06:11:35;;;;;;;3.85;3.58;;;;;;;5.52;100.00;100885.28;6144749;23;20168;-67
2023/01/14 06:14:02;;;;;;;4.40;3.97;;;;;;;5.55;100.00;100880.00;6164391;23;20088;-67
2023/01/14 06:16:38;;;;;;;3.92;3.72;;;;;;;5.60;100.00;100885.91;6148724;23;20038;-68
2023/01/14 06:19:10;;;;;;;4.80;4.00;;;;;;;5.67;100.00;100865.75;6145233;23;20008;-67
2023/01/14 06:21:38;;;;;;;6.93;3.50;;;;;;;5.72;100.00;100863.88;6138877;23;20353;-67
2023/01/14 06:24:05;;;;;;;4.88;4.38;;;;;;;5.77;100.00;100853.31;6173528;23;20009;-68
2023/01/14 06:26:34;;;;;;;3.60;3.50;;;;;;;5.47;100.00;100793.47;6139720;23;20349;-67
2023/01/14 06:29:06;;;;;;;3.75;3.55;;;;;;;5.81;100.00;100847.13;6156113;23;20028;-67
2023/01/14 06:31:32;;;;;;;3.70;3.50;;;;;;;5.86;100.00;100841.78;6112551;23;20033;-69
2023/01/14 06:34:01;;;;;;;8.27;5.03;;;;;;;5.26;100.00;100748.09;6163012;23;20031;-67
2023/01/14 06:36:29;;;;;;;3.80;3.60;;;;;;;5.92;100.00;100845.06;6117042;23;20026;-67
2023/01/14 06:38:56;;;;;;;6.10;3.40;;;;;;;5.63;100.00;100787.78;6172133;23;20252;-67
2023/01/14 06:41:23;;;;;;;8.65;5.32;;;;;;;5.74;100.00;100801.34;6129929;23;20039;-66
2023/01/14 06:43:49;;;;;;;10.18;4.07;;;;;;;5.92;100.00;100824.22;6171949;23;20023;-67
2023/01/14 06:46:16;;;;;;;15.75;6.38;;;;;;;6.07;100.00;100835.09;6139990;23;20044;-67
2023/01/14 06:48:43;;;;;;;7.70;5.03;;;;;;;6.00;100.00;100813.59;6140727;23;20299;-68
2023/01/14 06:51:13;;;;;;;4.35;3.95;;;;;;;6.07;100.00;100840.31;6171044;23;20016;-67
2023/01/14 06:53:41;;;;;;;3.90;3.70;;;;;;;5.70;100.00;100750.28;6122020;23;20029;-67
2023/01/14 06:56:12;;;;;;;4.32;4.03;;;;;;;6.04;100.00;100796.97;6161654;23;20017;-67
2023/01/14 06:58:39;;;;;;;5.80;4.03;;;;;;;6.00;100.00;100800.56;6122337;23;20051;-67
2023/01/14 07:01:09;;;;;;;4.10;3.80;;;;;;;6.03;100.00;100807.44;6134091;23;20013;-67
2023/01/14 07:03:37;;;;;;;4.22;3.95;;;;;;;5.95;100.00;100782.50;6173138;23;20017;-67
2023/01/14 07:06:04;;;;;;;4.13;3.92;;;;;;;5.96;100.00;100773.75;6126483;23;20033;-66
2023/01/14 07:08:31;;;;;;;4.00;3.80;;;;;;;5.24;100.00;100650.19;6163008;23;20029;-66
2023/01/14 07:10:57;;;;;;;4.07;3.88;;;;;;;4.91;100.00;100601.75;6139339;23;20155;-66
2023/01/14 07:13:24;;;;;;;7.88;4.43;;;;;;;5.41;100.00;100673.91;6167901;23;20049;-67
2023/01/14 07:15:51;;;;;;;11.60;4.72;;;;;;;5.89;100.00;100751.38;6143471;23;20029;-67
2023/01/14 07:18:18;;;;;;;3.90;3.70;;;;;;;5.86;100.00;100748.03;6136718;23;20712;-66
2023/01/14 07:20:44;;;;;;;4.20;3.90;;;;;;;5.83;100.00;100740.31;6143214;23;20017;-67
2023/01/14 07:23:11;;;;;;;3.55;3.38;;;;;;;5.83;100.00;100733.34;6160227;23;21200;-67
2023/01/14 07:25:39;;;;;;;5.88;5.07;;;;;;;5.80;100.00;100728.25;6112000;23;20675;-67
2023/01/14 07:28:05;;;;;;;4.13;3.88;;;;;;;5.67;100.00;100698.28;6163548;23;20412;-66
2023/01/14 07:30:32;;;;;;;7.72;4.85;;;;;;;5.72;100.00;100705.03;6143515;23;20093;-67
2023/01/14 07:33:00;;;;;;;4.20;3.90;;;;;;;5.67;100.00;100682.66;6116068;23;20021;-66
2023/01/14 07:35:28;;;;;;;5.20;4.80;;;;;;;5.75;100.00;100685.84;6141157;23;20025;-67
2023/01/14 07:37:56;;;;;;;4.57;4.00;;;;;;;5.76;100.00;100678.00;6172735;23;20017;-67
2023/01/14 07:40:23;;;;;;;4.28;3.95;;;;;;;5.74;100.00;100660.75;6116493;23;20089;-67
2023/01/14 07:42:57;;;;;;;4.13;3.80;;;;;;;5.55;100.00;100624.03;6166616;23;20040;-71
2023/01/14 07:45:25;;;;;;;10.43;4.90;;;;;;;5.75;100.00;100641.59;6118625;23;20049;-71
2023/01/14 07:47:52;;;;;;;5.07;4.45;;;;;;;5.74;100.00;100622.53;6138779;23;20032;-71
2023/01/14 07:50:20;;;;;;;3.35;3.25;;;;;;;5.62;100.00;100588.25;6140586;23;20066;-72
2023/01/14 07:52:55;;;;;;;4.53;4.32;;;;;;;5.58;100.00;100583.13;6140669;23;20025;-72
2023/01/14 07:55:21;;;;;;;4.88;4.40;;;;;;;5.32;100.00;100539.75;6144036;23;20584;-73
2023/01/14 07:57:48;;;;;;;5.38;4.40;;;;;;;5.36;100.00;100541.34;6170640;23;20361;-71
2023/01/14 08:00:16;;;;;;;4.57;4.38;;;;;;;5.30;100.00;100522.50;6133208;23;20013;-73
2023/01/14 08:02:42;;;;;;;9.50;4.50;;;;;;;5.75;100.00;100598.19;6136612;23;20032;-72
2023/01/14 08:05:10;;;;;;;7.03;5.32;;;;;;;5.77;100.00;100599.00;6139696;23;20463;-72
2023/01/14 08:07:36;;;;;;;3.45;3.35;;;;;;;5.50;100.00;100529.63;6161764;23;20090;-73
2023/01/14 08:10:04;;;;;;;5.68;3.75;;;;;;;5.50;100.00;100533.09;6125696;23;20039;-72
2023/01/14 08:12:32;;;;;;;4.70;4.35;;;;;;;5.84;100.00;100577.94;6159519;23;20047;-72
2023/01/14 08:14:59;;;;;;;3.65;3.45;;;;;;;5.30;100.00;100483.47;6137127;23;21369;-72
2023/01/14 08:17:26;;;;;;;6.78;4.25;;;;;;;5.90;100.00;100567.31;6030410;23;20096;-71
2023/01/14 08:19:55;;;;;;;3.80;3.60;;;;;;;5.90;100.00;100573.38;6138588;23;20033;-71
2023/01/14 08:22:22;;;;;;;4.82;4.07;;;;;;;5.81;100.00;100532.00;6134163;23;20035;-72
2023/01/14 08:24:50;;;;;;;4.57;4.20;;;;;;;5.58;100.00;100481.59;6171412;23;20047;-72
2023/01/14 08:27:16;;;;;;;6.53;4.05;;;;;;;5.83;100.00;100511.97;6133222;23;20090;-71
2023/01/14 08:29:44;;;;;;;4.63;4.32;;;;;;;5.96;100.00;100523.69;6138003;23;20240;-71
2023/01/14 08:32:13;;;;;;;4.20;3.90;;;;;;;5.88;100.00;100519.66;6139173;23;20479;-73
2023/01/14 08:34:40;;;;;;;3.80;3.60;;;;;;;5.92;100.00;100523.84;6173338;23;20029;-72
2023/01/14 08:37:06;;;;;;;4.00;3.80;;;;;;;5.60;100.00;100468.53;6139168;23;20289;-73
2023/01/14 08:39:33;;;;;;;4.30;4.00;;;;;;;5.79;100.00;100497.38;6134720;23;20080;-73
2023/01/14 08:41:59;;;;;;;4.60;4.25;;;;;;;5.98;100.00;100508.03;6138038;23;20036;-73
2023/01/14 08:44:26;;;;;;;4.63;4.30;;;;;;;6.10;100.00;100518.00;6116486;23;20542;-73
2023/01/14 08:46:52;;;;;;;4.28;3.88;;;;;;;5.98;100.00;100471.56;6139333;23;20032;-73
2023/01/14 08:49:19;;;;;;;4.10;3.90;;;;;;;5.77;100.00;100447.09;6135552;23;20009;-72
2023/01/14 08:51:45;;;;;;;4.13;3.92;;;;;;;5.77;100.00;100426.25;6136761;23;20053;-73
2023/01/14 08:54:12;;;;;;;6.75;4.90;;;;;;;6.13;100.00;100464.91;6135574;23;20086;-73
2023/01/14 08:56:38;;;;;;;5.38;4.88;;;;;;;5.92;100.00;100438.72;6136999;23;20031;-73
2023/01/14 08:59:05;;;;;;;4.88;4.57;;;;;;;6.05;100.00;100425.28;6159536;23;20009;-73
2023/01/14 09:01:31;;;;;;;4.20;3.85;;;;;;;6.40;100.00;100476.06;6140582;23;20388;-73
2023/01/14 09:04:17;;;;;;;4.40;4.20;;;;;;;5.82;100.00;100361.84;6116851;23;20043;-72
2023/01/14 09:17:45;;;;;;;4.20;4.00;;;;;;;6.73;100.00;100455.63;6137755;23;20010;-73
2023/01/14 09:20:17;;;;;;;4.47;4.28;;;;;;;6.78;100.00;100448.47;6143063;23;20334;-72
2023/01/14 09:22:44;;;;;;;4.80;4.38;;;;;;;6.82;100.00;100443.97;6166577;23;20094;-72
2023/01/14 09:25:11;;;;;;;4.03;3.83;;;;;;;5.74;100.00;100273.63;6141806;23;20032;-72
2023/01/14 09:27:51;;;;;;;3.97;3.78;;;;;;;6.86;100.00;100424.69;6148813;23;20148;-71
2023/01/14 09:30:17;;;;;;;4.45;4.15;;;;;;;6.65;100.00;100418.56;6142469;23;20450;-72
2023/01/14 09:32:44;;;;;;;7.38;4.53;;;;;;;6.25;100.00;100317.69;6141975;23;20150;-72
2023/01/14 09:35:11;;;;;;;4.60;4.32;;;;;;;6.52;100.00;100366.09;6140906;23;20382;-72
2023/01/14 09:37:38;;;;;;;4.10;3.90;;;;;;;6.47;100.00;100336.72;6181100;23;20256;-72
2023/01/14 09:40:05;;;;;;;10.25;3.92;;;;;;;6.97;100.00;100417.25;6142357;23;20041;-72
2023/01/14 09:42:38;;;;;;;4.20;4.00;;;;;;;7.07;100.00;100443.81;6171396;23;20087;-72
2023/01/14 09:45:38;;;;;;;4.03;3.78;;;;;;;6.75;100.00;100349.47;6139001;23;20017;-72
2023/01/14 09:48:19;;;;;;;4.10;3.83;;;;;;;7.19;100.00;100400.69;6161709;23;20177;-72
2023/01/14 09:51:10;;;;;;;4.10;3.90;;;;;;;6.92;100.00;100340.94;6140804;23;20024;-72
2023/01/14 09:53:45;;;;;;;3.92;3.72;;;;;;;7.35;100.00;100386.06;6161636;23;20030;-72
2023/01/14 09:57:13;;;;;;;3.70;3.60;;;;;;;7.34;100.00;100367.88;6123227;23;20086;-71
2023/01/14 10:00:10;;;;;;;3.85;3.67;;;;;;;6.86;100.00;100281.22;6078507;23;20078;-71
2023/01/14 10:03:15;;;;;;;4.03;3.83;;;;;;;7.44;100.00;100376.13;6128632;23;20104;-71
2023/01/14 10:05:53;;;;;;;4.93;3.80;;;;;;;7.44;100.00;100360.44;6160997;23;20035;-71
2023/01/14 10:08:22;;;;;;;4.20;4.00;;;;;;;6.78;100.00;100239.81;6101726;23;20021;-71
2023/01/14 10:10:49;;;;;;;5.22;3.80;;;;;;;7.44;100.00;100334.34;6177800;23;20073;-71
2023/01/14 10:13:39;;;;;;;4.00;3.80;;;;;;;7.45;100.00;100336.88;6121730;23;20033;-71
2023/01/14 10:16:12;;;;;;;4.10;3.90;;;;;;;7.45;100.00;100338.66;6171711;23;20103;-71
2023/01/14 10:18:52;;;;;;;4.13;3.92;;;;;;;7.44;100.00;100327.38;6125359;23;20025;-71
2023/01/14 10:21:51;;;;;;;3.67;3.50;;;;;;;7.41;100.00;100314.44;6127590;23;20086;-73
2023/01/14 10:24:22;;;;;;;4.10;3.80;;;;;;;7.37;100.00;100325.94;6125390;23;20077;-71
2023/01/14 10:26:49;;;;;;;4.10;3.90;;;;;;;7.34;100.00;100310.44;6131924;23;20148;-72
2023/01/14 10:29:17;;;;;;;4.55;4.15;;;;;;;7.34;100.00;100305.22;6137113;23;20251;-72
2023/01/14 10:31:54;;;;;;;4.45;4.15;;;;;;;7.32;100.00;100294.84;6155482;23;20016;-72
2023/01/14 10:34:28;;;;;;;13.20;3.70;;;;;;;7.29;100.00;100284.53;6171619;23;20013;-71
2023/01/14 10:36:55;;;;;;;3.70;3.50;;;;;;;7.12;100.00;100280.06;6141702;23;20051;-71
2023/01/14 10:39:21;;;;;;;3.50;3.40;;;;;;;7.23;100.00;100250.88;6113273;23;20484;-71
2023/01/14 10:41:48;;;;;;;6.55;3.70;;;;;;;6.72;100.00;100169.69;6125533;23;20032;-72
2023/01/14 10:44:24;;;;;;;4.05;3.80;;;;;;;7.23;100.00;100223.94;6136149;23;20263;-71
2023/01/14 10:46:55;;;;;;;3.80;3.60;;;;;;;7.22;100.00;100223.09;6170015;23;20475;-71
2023/01/14 10:49:37;;;;;;;4.13;3.90;;;;;;;7.27;100.00;100204.59;6138808;23;20357;-72
2023/01/14 10:52:26;;;;;;;3.50;3.40;;;;;;;7.27;100.00;100208.06;6140015;23;20522;-72
2023/01/14 10:54:57;;;;;;;3.47;3.38;;;;;;;7.21;100.00;100197.06;6140813;23;20506;-73
2023/01/14 10:57:24;;;;;;;3.90;3.70;;;;;;;6.86;100.00;100134.31;6141822;23;20024;-72
2023/01/14 10:59:53;;;;;;;4.38;3.55;;;;;;;7.05;100.00;100158.63;6166995;23;20271;-72
2023/01/14 11:02:35;;;;;;;4.00;3.80;;;;;;;6.90;100.00;100115.00;6116994;23;20021;-72
2023/01/14 11:05:21;;;;;;;4.20;3.90;;;;;;;7.41;100.00;100176.09;6138702;23;20188;-72
2023/01/14 11:07:50;;;;;;;6.68;3.80;;;;;;;7.41;100.00;100155.19;6136654;23;20373;-72
2023/01/14 11:10:26;;;;;;;3.78;3.67;;;;;;;7.44;100.00;100146.38;6122328;23;20240;-71
2023/01/14 11:13:13;;;;;;;3.70;3.50;;;;;;;7.50;100.00;100130.44;6169000;23;20044;-71
2023/01/14 11:15:41;;;;;;;3.80;3.60;;;;;;;7.52;100.00;100147.72;6114260;23;20072;-71
2023/01/14 11:18:29;;;;;;;5.78;4.00;;;;;;;7.52;100.00;100105.09;6118178;23;20029;-71
2023/01/14 11:21:20;;;;;;;3.40;3.30;;;;;;;6.90;100.00;99997.63;6137205;23;20276;-73
2023/01/14 11:23:58;;;;;;;3.63;3.50;;;;;;;7.08;100.00;100020.22;6170289;23;20394;-71
2023/01/14 11:26:36;;;;;;;3.60;3.50;;;;;;;7.32;100.00;100022.53;6139163;23;20029;-71
2023/01/14 11:29:25;;;;;;;5.72;3.40;;;;;;;7.67;100.00;100056.47;6169505;23;20076;-72
2023/01/14 11:31:55;;;;;;;16.83;4.15;;;;;;;7.51;100.00;100032.91;6135281;23;20246;-71
2023/01/14 11:34:32;;;;;;;3.60;3.50;;;;;;;7.64;100.00;100040.94;6141462;23;20045;-72
2023/01/14 11:37:24;;;;;;;3.95;3.75;;;;;;;7.44;100.00;100010.63;6135818;23;20016;-70
2023/01/14 11:39:54;;;;;;;4.03;3.58;;;;;;;7.34;100.00;99973.72;6134599;23;20133;-71
2023/01/14 11:42:27;;;;;;;4.45;3.38;;;;;;;7.73;100.00;100032.66;6129282;23;20027;-71
2023/01/14 11:44:58;;;;;;;;;;;;;;;7.71;100.00;100019.66;6144810;23;20029;-71
2023/01/14 11:47:26;;;;;;;3.35;3.25;;;;;;;7.22;100.00;99922.13;6141555;23;19917;-71
2023/01/14 11:50:11;;;;;;;3.60;3.50;;;;;;;7.75;100.00;100002.06;6172462;23;20029;-71
2023/01/14 11:52:38;;;;;;;4.03;3.83;;;;;;;7.63;100.00;99967.00;6136194;23;20088;-72
2023/01/14 11:55:16;;;;;;;3.92;3.72;;;;;;;7.78;100.00;99987.09;6141577;23;20308;-71
2023/01/14 11:57:43;;;;;;;3.63;3.53;;;;;;;7.23;100.00;99882.06;6146727;23;20554;-72
2023/01/14 12:00:11;;;;;;;4.07;3.88;;;;;;;7.79;100.00;99967.03;6164838;23;20475;-70
2023/01/14 12:02:46;;;;;;;4.38;4.18;;;;;;;7.83;100.00;99965.94;6094260;23;20021;-72
2023/01/14 12:05:21;;;;;;;4.32;4.05;;;;;;;7.85;100.00;99960.66;6169458;23;20142;-71
2023/01/14 12:07:52;;;;;;;10.52;3.97;;;;;;;7.83;100.00;99952.88;6144050;23;20051;-71
2023/01/14 12:10:32;;;;;;;4.00;3.80;;;;;;;7.19;100.00;99837.84;6142391;23;20025;-72
2023/01/14 12:16:49;;;;;;;3.80;3.70;;;;;;;7.73;100.00;99895.06;6100663;23;20017;-71